PWSweather.com
Personal Weather Stations
Station Observations
LOGATEC1
LogatecSI

LogatecSI

Lat: 45.9084282, Lon: 14.2029696

Elevation: 1584

Station Type: TFA Primus solar

Latest ConditionsUpdated 1:59:20 PM GMT+01:01 Sunday, Sep 22, 2019
Currently Today's Max Today's Min Today's Average
Temperature 61.6°F16.4°C 65.2°F18.4°C 35.6°F2.0°C 46.1°F7.8°C
Dew Point 51.0°F10.6°C 51.0°F10.6°C 32.3°F0.2°C 39.8°F4.3°C
Winds 3.4 mph WSW5.5 kmh WSW 6.0 mph -9.7 kmh - - 1.3 mph 2.1 kmh
Wind Gusts 7.4 mph11.9 kmh 14.7 mph23.7 kmh - -
Humidity 68% 92% 52% 81%
Pressure 30.01 in1016.3 mb 30.15 in1021.0 mb 30.01 in1016.3 mb -
Hour Temp Dew Point Humidity Winds Wind Gusts Pressure Precip Precip Rate Daily Precip Total
01:59 PM 61.6°F16.4°C 51.0°F10.6°C 68% 3.4 mph WSW5.5 kmh WSW 7.4 mph11.9 kmh 30.01 in1016.3 mb 0.00 in0.0 mm 0.00 in0.0 mm 0.00 in0.0 mm
01:54 PM 61.9°F16.6°C 50.8°F10.4°C 67% 2.5 mph SSW4.0 kmh SSW 4.6 mph7.4 kmh 30.02 in1016.6 mb 0.00 in0.0 mm 0.00 in0.0 mm 0.00 in0.0 mm
01:48 PM 62.1°F16.7°C 50.6°F10.3°C 66% 2.2 mph SW3.5 kmh SW 9.5 mph15.3 kmh 30.01 in1016.3 mb 0.00 in0.0 mm 0.00 in0.0 mm 0.00 in0.0 mm
01:43 PM 62.3°F16.8°C 50.4°F10.2°C 65% 1.4 mph WSW2.3 kmh WSW 9.5 mph15.3 kmh 30.01 in1016.3 mb 0.00 in0.0 mm 0.00 in0.0 mm 0.00 in0.0 mm
01:38 PM 62.5°F16.9°C 50.2°F10.1°C 64% 1.8 mph WSW2.9 kmh WSW 6.0 mph9.7 kmh 30.01 in1016.3 mb 0.00 in0.0 mm 0.00 in0.0 mm 0.00 in0.0 mm
01:33 PM 62.6°F17.0°C 49.8°F9.9°C 63% 2.1 mph SW3.4 kmh SW 5.1 mph8.2 kmh 30.01 in1016.3 mb 0.00 in0.0 mm 0.00 in0.0 mm 0.00 in0.0 mm
01:28 PM 62.8°F17.1°C 49.6°F9.8°C 62% 2.7 mph SSW4.3 kmh SSW 6.0 mph9.7 kmh 30.01 in1016.3 mb 0.00 in0.0 mm 0.00 in0.0 mm 0.00 in0.0 mm
01:23 PM 63.0°F17.2°C 49.8°F9.9°C 62% 2.9 mph W4.7 kmh W 6.0 mph9.7 kmh 30.02 in1016.6 mb 0.00 in0.0 mm 0.00 in0.0 mm 0.00 in0.0 mm
01:18 PM 63.2°F17.3°C 49.9°F9.9°C 62% 2.0 mph W3.2 kmh W 5.1 mph8.2 kmh 30.02 in1016.6 mb 0.00 in0.0 mm 0.00 in0.0 mm 0.00 in0.0 mm
01:13 PM 63.2°F17.3°C 49.5°F9.7°C 61% 1.1 mph SW1.8 kmh SW 6.8 mph10.9 kmh 30.02 in1016.6 mb 0.00 in0.0 mm 0.00 in0.0 mm 0.00 in0.0 mm
01:08 PM 63.4°F17.4°C 49.2°F9.6°C 60% 2.7 mph WSW4.3 kmh WSW 8.1 mph13.0 kmh 30.02 in1016.6 mb 0.00 in0.0 mm 0.00 in0.0 mm 0.00 in0.0 mm
01:03 PM 63.5°F17.5°C 49.3°F9.6°C 60% 1.9 mph W3.1 kmh W 8.1 mph13.0 kmh 30.02 in1016.6 mb 0.00 in0.0 mm 0.00 in0.0 mm 0.00 in0.0 mm
12:58 PM 63.7°F17.6°C 49.0°F9.4°C 59% 1.9 mph WSW3.1 kmh WSW 6.5 mph10.5 kmh 30.01 in1016.3 mb 0.00 in0.0 mm 0.00 in0.0 mm 0.00 in0.0 mm
12:53 PM 63.7°F17.6°C 49.0°F9.4°C 59% 1.3 mph W2.1 kmh W 6.8 mph10.9 kmh 30.01 in1016.3 mb 0.00 in0.0 mm 0.00 in0.0 mm 0.00 in0.0 mm
12:48 PM 63.7°F17.6°C 48.6°F9.2°C 58% 3.3 mph SW5.3 kmh SW 6.8 mph10.9 kmh 30.01 in1016.3 mb 0.00 in0.0 mm 0.00 in0.0 mm 0.00 in0.0 mm
12:43 PM 63.9°F17.7°C 48.3°F9.1°C 57% 3.0 mph W4.8 kmh W 6.8 mph10.9 kmh 30.01 in1016.3 mb 0.00 in0.0 mm 0.00 in0.0 mm 0.00 in0.0 mm
12:38 PM 64.1°F17.8°C 48.9°F9.4°C 58% 2.8 mph SW4.5 kmh SW 6.8 mph10.9 kmh 30.02 in1016.6 mb 0.00 in0.0 mm 0.00 in0.0 mm 0.00 in0.0 mm
12:33 PM 64.1°F17.8°C 48.5°F9.2°C 57% 2.3 mph WSW3.7 kmh WSW 7.4 mph11.9 kmh 30.02 in1016.6 mb 0.00 in0.0 mm 0.00 in0.0 mm 0.00 in0.0 mm
12:28 PM 64.3°F17.9°C 48.7°F9.3°C 57% 1.7 mph SW2.7 kmh SW 9.5 mph15.3 kmh 30.02 in1016.6 mb 0.00 in0.0 mm 0.00 in0.0 mm 0.00 in0.0 mm
12:22 PM 64.3°F17.9°C 48.2°F9.0°C 56% 3.8 mph W6.1 kmh W 9.5 mph15.3 kmh 30.02 in1016.6 mb 0.00 in0.0 mm 0.00 in0.0 mm 0.00 in0.0 mm
12:17 PM 64.4°F18.0°C 48.3°F9.1°C 56% 3.5 mph W5.6 kmh W 8.1 mph13.0 kmh 30.02 in1016.6 mb 0.00 in0.0 mm 0.00 in0.0 mm 0.00 in0.0 mm
12:12 PM 64.4°F18.0°C 47.8°F8.8°C 55% 2.9 mph SW4.7 kmh SW 8.1 mph13.0 kmh 30.02 in1016.6 mb 0.00 in0.0 mm 0.00 in0.0 mm 0.00 in0.0 mm
12:07 PM 64.8°F18.2°C 48.1°F8.9°C 55% 3.0 mph WSW4.8 kmh WSW 14.7 mph23.7 kmh 30.02 in1016.6 mb 0.00 in0.0 mm 0.00 in0.0 mm 0.00 in0.0 mm
12:02 PM 64.8°F18.2°C 47.6°F8.7°C 54% 4.5 mph SW7.2 kmh SW 14.7 mph23.7 kmh 30.02 in1016.6 mb 0.00 in0.0 mm 0.00 in0.0 mm 0.00 in0.0 mm
11:57 AM 65.2°F18.4°C 48.0°F8.9°C 54% 2.6 mph WSW4.2 kmh WSW 10.8 mph17.4 kmh 30.02 in1016.6 mb 0.00 in0.0 mm 0.00 in0.0 mm 0.00 in0.0 mm
11:52 AM 65.2°F18.4°C 46.9°F8.3°C 52% 5.3 mph SW8.5 kmh SW 11.1 mph17.9 kmh 30.02 in1016.6 mb 0.00 in0.0 mm 0.00 in0.0 mm 0.00 in0.0 mm
11:47 AM 65.2°F18.4°C 48.0°F8.9°C 54% 3.8 mph SW6.1 kmh SW 11.1 mph17.9 kmh 30.02 in1016.6 mb 0.00 in0.0 mm 0.00 in0.0 mm 0.00 in0.0 mm
11:42 AM 65.2°F18.4°C 48.5°F9.2°C 55% 3.1 mph SW5.0 kmh SW 8.1 mph13.0 kmh 30.02 in1016.6 mb 0.00 in0.0 mm 0.00 in0.0 mm 0.00 in0.0 mm
11:37 AM 65.0°F18.3°C 48.8°F9.3°C 56% 3.4 mph WSW5.5 kmh WSW 8.1 mph13.0 kmh 30.02 in1016.6 mb 0.00 in0.0 mm 0.00 in0.0 mm 0.00 in0.0 mm
11:32 AM 64.6°F18.1°C 48.9°F9.4°C 57% 2.9 mph SW4.7 kmh SW 6.5 mph10.5 kmh 30.02 in1016.6 mb 0.00 in0.0 mm 0.00 in0.0 mm 0.00 in0.0 mm
11:27 AM 64.3°F17.9°C 49.1°F9.5°C 58% 2.7 mph WNW4.3 kmh WNW 9.5 mph15.3 kmh 30.03 in1016.9 mb 0.00 in0.0 mm 0.00 in0.0 mm 0.00 in0.0 mm
11:21 AM 63.7°F17.6°C 48.6°F9.2°C 58% 3.3 mph S5.3 kmh S 9.5 mph15.3 kmh 30.03 in1016.9 mb 0.00 in0.0 mm 0.00 in0.0 mm 0.00 in0.0 mm
11:16 AM 63.2°F17.3°C 48.1°F8.9°C 58% 2.8 mph SSW4.5 kmh SSW 10.8 mph17.4 kmh 30.03 in1016.9 mb 0.00 in0.0 mm 0.00 in0.0 mm 0.00 in0.0 mm
11:11 AM 63.0°F17.2°C 47.9°F8.8°C 58% 4.1 mph SSW6.6 kmh SSW 10.8 mph17.4 kmh 30.03 in1016.9 mb 0.00 in0.0 mm 0.00 in0.0 mm 0.00 in0.0 mm
11:06 AM 63.0°F17.2°C 47.9°F8.8°C 58% 3.9 mph SE6.3 kmh SE 9.5 mph15.3 kmh 30.03 in1016.9 mb 0.00 in0.0 mm 0.00 in0.0 mm 0.00 in0.0 mm
11:01 AM 63.0°F17.2°C 47.4°F8.6°C 57% 6.0 mph S9.7 kmh S 9.8 mph15.8 kmh 30.04 in1017.3 mb 0.00 in0.0 mm 0.00 in0.0 mm 0.00 in0.0 mm
10:56 AM 62.6°F17.0°C 46.6°F8.1°C 56% 3.9 mph SSW6.3 kmh SSW 9.8 mph15.8 kmh 30.03 in1016.9 mb 0.00 in0.0 mm 0.00 in0.0 mm 0.00 in0.0 mm
10:51 AM 62.3°F16.8°C 46.3°F7.9°C 56% 4.0 mph SW6.4 kmh SW 7.6 mph12.2 kmh 30.04 in1017.3 mb 0.00 in0.0 mm 0.00 in0.0 mm 0.00 in0.0 mm
10:46 AM 61.9°F16.6°C 47.8°F8.8°C 60% 1.6 mph SSW2.6 kmh SSW 5.1 mph8.2 kmh 30.03 in1016.9 mb 0.00 in0.0 mm 0.00 in0.0 mm 0.00 in0.0 mm
10:41 AM 61.7°F16.5°C 47.2°F8.4°C 59% 1.7 mph W2.7 kmh W 5.7 mph9.2 kmh 30.03 in1016.9 mb 0.00 in0.0 mm 0.00 in0.0 mm 0.00 in0.0 mm
10:35 AM 61.4°F16.3°C 46.4°F8.0°C 58% 2.1 mph SW3.4 kmh SW 5.7 mph9.2 kmh 30.04 in1017.3 mb 0.00 in0.0 mm 0.00 in0.0 mm 0.00 in0.0 mm
10:30 AM 61.2°F16.2°C 48.0°F8.9°C 62% 2.0 mph SSE3.2 kmh SSE 5.1 mph8.2 kmh 30.04 in1017.3 mb 0.00 in0.0 mm 0.00 in0.0 mm 0.00 in0.0 mm
10:25 AM 60.7°F15.9°C 48.0°F8.9°C 63% 2.3 mph S3.7 kmh S 4.4 mph7.1 kmh 30.04 in1017.3 mb 0.00 in0.0 mm 0.00 in0.0 mm 0.00 in0.0 mm
10:20 AM 60.1°F15.6°C 48.3°F9.1°C 65% 2.6 mph SE4.2 kmh SE 5.1 mph8.2 kmh 30.04 in1017.3 mb 0.00 in0.0 mm 0.00 in0.0 mm 0.00 in0.0 mm
10:15 AM 59.2°F15.1°C 48.3°F9.1°C 67% 2.1 mph SW3.4 kmh SW 7.0 mph11.3 kmh 30.04 in1017.3 mb 0.00 in0.0 mm 0.00 in0.0 mm 0.00 in0.0 mm
10:10 AM 58.1°F14.5°C 48.0°F8.9°C 69% 2.2 mph NW3.5 kmh NW 7.0 mph11.3 kmh 30.05 in1017.6 mb 0.00 in0.0 mm 0.00 in0.0 mm 0.00 in0.0 mm
10:04 AM 57.2°F14.0°C 47.9°F8.8°C 71% 2.7 mph W4.3 kmh W 5.7 mph9.2 kmh 30.05 in1017.6 mb 0.00 in0.0 mm 0.00 in0.0 mm 0.00 in0.0 mm
09:59 AM 56.3°F13.5°C 48.5°F9.2°C 75% 2.0 mph W3.2 kmh W 5.1 mph8.2 kmh 30.05 in1017.6 mb 0.00 in0.0 mm 0.00 in0.0 mm 0.00 in0.0 mm
09:54 AM 55.3°F12.9°C 49.9°F9.9°C 82% 1.1 mph SSE1.8 kmh SSE 3.3 mph5.3 kmh 30.06 in1017.9 mb 0.00 in0.0 mm 0.00 in0.0 mm 0.00 in0.0 mm
09:49 AM 54.4°F12.4°C 50.2°F10.1°C 86% 2.0 mph ESE3.2 kmh ESE 3.3 mph5.3 kmh 30.06 in1017.9 mb 0.00 in0.0 mm 0.00 in0.0 mm 0.00 in0.0 mm
09:44 AM 53.3°F11.8°C 49.5°F9.7°C 87% 0.6 mph NNE1.0 kmh NNE 3.3 mph5.3 kmh 30.06 in1017.9 mb 0.00 in0.0 mm 0.00 in0.0 mm 0.00 in0.0 mm
09:39 AM 52.6°F11.4°C 49.4°F9.7°C 89% 1.8 mph NNE2.9 kmh NNE 3.3 mph5.3 kmh 30.06 in1017.9 mb 0.00 in0.0 mm 0.00 in0.0 mm 0.00 in0.0 mm
09:34 AM 51.8°F11.0°C 48.9°F9.4°C 90% 0.5 mph NW0.8 kmh NW 2.7 mph4.3 kmh 30.06 in1017.9 mb 0.00 in0.0 mm 0.00 in0.0 mm 0.00 in0.0 mm
09:29 AM 51.1°F10.6°C 48.5°F9.2°C 91% 1.8 mph N2.9 kmh N 2.7 mph4.3 kmh 30.06 in1017.9 mb 0.00 in0.0 mm 0.00 in0.0 mm 0.00 in0.0 mm
09:24 AM 50.4°F10.2°C 47.5°F8.6°C 90% 1.4 mph SE2.3 kmh SE 5.1 mph8.2 kmh 30.06 in1017.9 mb 0.00 in0.0 mm 0.00 in0.0 mm 0.00 in0.0 mm
09:19 AM 49.7°F9.8°C 47.1°F8.4°C 91% 0.9 mph SE1.4 kmh SE 5.1 mph8.2 kmh 30.06 in1017.9 mb 0.00 in0.0 mm 0.00 in0.0 mm 0.00 in0.0 mm
09:14 AM 49.0°F9.4°C 46.4°F8.0°C 91% 1.9 mph SE3.1 kmh SE 4.4 mph7.1 kmh 30.06 in1017.9 mb 0.00 in0.0 mm 0.00 in0.0 mm 0.00 in0.0 mm
09:08 AM 48.2°F9.0°C 45.6°F7.6°C 91% 2.1 mph SE3.4 kmh SE 4.4 mph7.1 kmh 30.07 in1018.3 mb 0.00 in0.0 mm 0.00 in0.0 mm 0.00 in0.0 mm
09:03 AM 47.5°F8.6°C 44.9°F7.2°C 91% 0.7 mph NE1.1 kmh NE 2.4 mph3.9 kmh 30.07 in1018.3 mb 0.00 in0.0 mm 0.00 in0.0 mm 0.00 in0.0 mm
08:58 AM 47.0°F8.3°C 44.7°F7.1°C 92% 0.3 mph ENE0.5 kmh ENE 2.7 mph4.3 kmh 30.07 in1018.3 mb 0.00 in0.0 mm 0.00 in0.0 mm 0.00 in0.0 mm
08:53 AM 46.4°F8.0°C 44.1°F6.7°C 92% 1.0 mph ENE1.6 kmh ENE 2.7 mph4.3 kmh 30.07 in1018.3 mb 0.00 in0.0 mm 0.00 in0.0 mm 0.00 in0.0 mm
08:48 AM 45.9°F7.7°C 43.6°F6.4°C 92% 1.3 mph SE2.1 kmh SE 2.7 mph4.3 kmh 30.07 in1018.3 mb 0.00 in0.0 mm 0.00 in0.0 mm 0.00 in0.0 mm
08:43 AM 45.5°F7.5°C 43.2°F6.2°C 92% 0.6 mph SE1.0 kmh SE 2.4 mph3.9 kmh 30.07 in1018.3 mb 0.00 in0.0 mm 0.00 in0.0 mm 0.00 in0.0 mm
08:38 AM 45.2°F7.3°C 42.9°F6.1°C 92% 1.2 mph SE1.9 kmh SE 2.7 mph4.3 kmh 30.07 in1018.3 mb 0.00 in0.0 mm 0.00 in0.0 mm 0.00 in0.0 mm
08:33 AM 44.6°F7.0°C 42.3°F5.7°C 92% 1.8 mph SE2.9 kmh SE 2.7 mph4.3 kmh 30.07 in1018.3 mb 0.00 in0.0 mm 0.00 in0.0 mm 0.00 in0.0 mm
08:28 AM 44.3°F6.8°C 41.8°F5.4°C 91% 1.3 mph SE2.1 kmh SE 1.9 mph3.1 kmh 30.07 in1018.3 mb 0.00 in0.0 mm 0.00 in0.0 mm 0.00 in0.0 mm
08:23 AM 43.9°F6.6°C 41.7°F5.4°C 92% 0.5 mph SW0.8 kmh SW 1.3 mph2.1 kmh 30.07 in1018.3 mb 0.00 in0.0 mm 0.00 in0.0 mm 0.00 in0.0 mm
08:18 AM 43.4°F6.3°C 40.9°F4.9°C 91% 0.8 mph WSW1.3 kmh WSW 1.7 mph2.7 kmh 30.07 in1018.3 mb 0.00 in0.0 mm 0.00 in0.0 mm 0.00 in0.0 mm
08:12 AM 43.0°F6.1°C 40.8°F4.9°C 92% 0.6 mph WSW1.0 kmh WSW 1.7 mph2.7 kmh 30.07 in1018.3 mb 0.00 in0.0 mm 0.00 in0.0 mm 0.00 in0.0 mm
08:07 AM 42.7°F5.9°C 40.5°F4.7°C 92% 1.1 mph WSW1.8 kmh WSW 1.3 mph2.1 kmh 30.07 in1018.3 mb 0.00 in0.0 mm 0.00 in0.0 mm 0.00 in0.0 mm
08:02 AM 42.3°F5.7°C 40.1°F4.5°C 92% 0.3 mph WSW0.5 kmh WSW 1.3 mph2.1 kmh 30.07 in1018.3 mb 0.00 in0.0 mm 0.00 in0.0 mm 0.00 in0.0 mm
07:57 AM 41.9°F5.5°C 39.7°F4.3°C 92% 0.6 mph SW1.0 kmh SW 1.7 mph2.7 kmh 30.07 in1018.3 mb 0.00 in0.0 mm 0.00 in0.0 mm 0.00 in0.0 mm
07:51 AM 41.4°F5.2°C 39.2°F4.0°C 92% 0.6 mph SE1.0 kmh SE 1.9 mph3.1 kmh 30.07 in1018.3 mb 0.00 in0.0 mm 0.00 in0.0 mm 0.00 in0.0 mm
07:46 AM 41.2°F5.1°C 39.0°F3.9°C 92% 0.3 mph SE0.5 kmh SE 1.9 mph3.1 kmh 30.08 in1018.6 mb 0.00 in0.0 mm 0.00 in0.0 mm 0.00 in0.0 mm
07:41 AM 40.7°F4.8°C 38.5°F3.6°C 92% 0.4 mph SE0.6 kmh SE 3.0 mph4.8 kmh 30.07 in1018.3 mb 0.00 in0.0 mm 0.00 in0.0 mm 0.00 in0.0 mm
07:36 AM 40.5°F4.7°C 38.3°F3.5°C 92% 1.8 mph SE2.9 kmh SE 3.0 mph4.8 kmh 30.07 in1018.3 mb 0.00 in0.0 mm 0.00 in0.0 mm 0.00 in0.0 mm
07:31 AM 40.0°F4.4°C 37.8°F3.2°C 92% 1.7 mph SE2.7 kmh SE 2.7 mph4.3 kmh 30.07 in1018.3 mb 0.00 in0.0 mm 0.00 in0.0 mm 0.00 in0.0 mm
07:26 AM 39.6°F4.2°C 37.4°F3.0°C 92% 0.3 mph W0.5 kmh W 1.7 mph2.7 kmh 30.07 in1018.3 mb 0.00 in0.0 mm 0.00 in0.0 mm 0.00 in0.0 mm
07:20 AM 39.4°F4.1°C 37.2°F2.9°C 92% 0.7 mph W1.1 kmh W 1.7 mph2.7 kmh 30.08 in1018.6 mb 0.00 in0.0 mm 0.00 in0.0 mm 0.00 in0.0 mm
07:15 AM 38.9°F3.8°C 36.7°F2.6°C 92% 0.3 mph W0.5 kmh W 1.7 mph2.7 kmh 30.08 in1018.6 mb 0.00 in0.0 mm 0.00 in0.0 mm 0.00 in0.0 mm
07:10 AM 38.5°F3.6°C 36.0°F2.2°C 91% 0.7 mph W1.1 kmh W 1.7 mph2.7 kmh 30.08 in1018.6 mb 0.00 in0.0 mm 0.00 in0.0 mm 0.00 in0.0 mm
07:05 AM 38.3°F3.5°C 35.8°F2.1°C 91% 0.3 mph WNW0.5 kmh WNW 1.0 mph1.6 kmh 30.08 in1018.6 mb 0.00 in0.0 mm 0.00 in0.0 mm 0.00 in0.0 mm
07:00 AM 38.0°F3.3°C 35.5°F1.9°C 91% 0.5 mph WNW0.8 kmh WNW 2.4 mph3.9 kmh 30.08 in1018.6 mb 0.00 in0.0 mm 0.00 in0.0 mm 0.00 in0.0 mm
06:54 AM 37.8°F3.2°C 35.3°F1.8°C 91% 0.3 mph NW0.5 kmh NW 2.7 mph4.3 kmh 30.09 in1019.0 mb 0.00 in0.0 mm 0.00 in0.0 mm 0.00 in0.0 mm
06:49 AM 37.6°F3.1°C 35.1°F1.7°C 91% 1.6 mph W2.6 kmh W 2.7 mph4.3 kmh 30.09 in1019.0 mb 0.00 in0.0 mm 0.00 in0.0 mm 0.00 in0.0 mm
06:44 AM 37.1°F2.8°C 34.4°F1.3°C 90% 0.9 mph SSE1.4 kmh SSE 2.4 mph3.9 kmh 30.09 in1019.0 mb 0.00 in0.0 mm 0.00 in0.0 mm 0.00 in0.0 mm
06:39 AM 36.7°F2.6°C 34.0°F1.1°C 90% 1.2 mph SSE1.9 kmh SSE 1.7 mph2.7 kmh 30.09 in1019.0 mb 0.00 in0.0 mm 0.00 in0.0 mm 0.00 in0.0 mm
06:34 AM 36.4°F2.4°C 33.7°F0.9°C 90% 0.4 mph SW0.6 kmh SW 1.7 mph2.7 kmh 30.09 in1019.0 mb 0.00 in0.0 mm 0.00 in0.0 mm 0.00 in0.0 mm
06:29 AM 36.2°F2.3°C 33.5°F0.8°C 90% 0.5 mph SW0.8 kmh SW 1.7 mph2.7 kmh 30.09 in1019.0 mb 0.00 in0.0 mm 0.00 in0.0 mm 0.00 in0.0 mm
06:24 AM 36.0°F2.2°C 33.3°F0.7°C 90% Calm Calm 1.7 mph2.7 kmh 30.09 in1019.0 mb 0.00 in0.0 mm 0.00 in0.0 mm 0.00 in0.0 mm
06:19 AM 35.8°F2.1°C 33.1°F0.6°C 90% Calm Calm -- 30.09 in1019.0 mb 0.00 in0.0 mm 0.00 in0.0 mm 0.00 in0.0 mm
06:14 AM 35.8°F2.1°C 33.1°F0.6°C 90% Calm Calm 1.3 mph2.1 kmh 30.09 in1019.0 mb 0.00 in0.0 mm 0.00 in0.0 mm 0.00 in0.0 mm
06:09 AM 35.8°F2.1°C 33.1°F0.6°C 90% 0.3 mph S0.5 kmh S 1.9 mph3.1 kmh 30.09 in1019.0 mb 0.00 in0.0 mm 0.00 in0.0 mm 0.00 in0.0 mm
06:04 AM 35.6°F2.0°C 32.6°F0.3°C 89% 1.0 mph S1.6 kmh S 2.4 mph3.9 kmh 30.09 in1019.0 mb 0.00 in0.0 mm 0.00 in0.0 mm 0.00 in0.0 mm
05:59 AM 35.6°F2.0°C 32.6°F0.3°C 89% 0.6 mph S1.0 kmh S 2.4 mph3.9 kmh 30.09 in1019.0 mb 0.00 in0.0 mm 0.00 in0.0 mm 0.00 in0.0 mm
05:54 AM 35.6°F2.0°C 32.6°F0.3°C 89% 1.0 mph W1.6 kmh W 1.9 mph3.1 kmh 30.09 in1019.0 mb 0.00 in0.0 mm 0.00 in0.0 mm 0.00 in0.0 mm
05:49 AM 35.6°F2.0°C 32.6°F0.3°C 89% 0.5 mph WNW0.8 kmh WNW 1.9 mph3.1 kmh 30.09 in1019.0 mb 0.00 in0.0 mm 0.00 in0.0 mm 0.00 in0.0 mm
05:44 AM 35.6°F2.0°C 32.6°F0.3°C 89% 0.9 mph WNW1.4 kmh WNW 1.7 mph2.7 kmh 30.09 in1019.0 mb 0.00 in0.0 mm 0.00 in0.0 mm 0.00 in0.0 mm
05:39 AM 35.6°F2.0°C 32.6°F0.3°C 89% Calm Calm 1.7 mph2.7 kmh 30.09 in1019.0 mb 0.00 in0.0 mm 0.00 in0.0 mm 0.00 in0.0 mm
05:34 AM 35.6°F2.0°C 32.6°F0.3°C 89% Calm Calm 2.4 mph3.9 kmh 30.09 in1019.0 mb 0.00 in0.0 mm 0.00 in0.0 mm 0.00 in0.0 mm
05:29 AM 35.6°F2.0°C 32.6°F0.3°C 89% 1.0 mph SW1.6 kmh SW 2.4 mph3.9 kmh 30.09 in1019.0 mb 0.00 in0.0 mm 0.00 in0.0 mm 0.00 in0.0 mm
05:23 AM 35.6°F2.0°C 32.6°F0.3°C 89% Calm Calm 2.4 mph3.9 kmh 30.09 in1019.0 mb 0.00 in0.0 mm 0.00 in0.0 mm 0.00 in0.0 mm
05:18 AM 35.6°F2.0°C 32.6°F0.3°C 89% 1.0 mph SSE1.6 kmh SSE 2.7 mph4.3 kmh 30.09 in1019.0 mb 0.00 in0.0 mm 0.00 in0.0 mm 0.00 in0.0 mm
05:13 AM 35.6°F2.0°C 32.6°F0.3°C 89% 1.6 mph SE2.6 kmh SE 3.3 mph5.3 kmh 30.09 in1019.0 mb 0.00 in0.0 mm 0.00 in0.0 mm 0.00 in0.0 mm
05:08 AM 35.6°F2.0°C 32.6°F0.3°C 89% 1.6 mph SE2.6 kmh SE 3.3 mph5.3 kmh 30.09 in1019.0 mb 0.00 in0.0 mm 0.00 in0.0 mm 0.00 in0.0 mm
05:03 AM 35.6°F2.0°C 32.6°F0.3°C 89% 1.0 mph SSW1.6 kmh SSW 2.4 mph3.9 kmh 30.09 in1019.0 mb 0.00 in0.0 mm 0.00 in0.0 mm 0.00 in0.0 mm
04:58 AM 35.6°F2.0°C 32.6°F0.3°C 89% 0.3 mph SSW0.5 kmh SSW 0.6 mph1.0 kmh 30.09 in1019.0 mb 0.00 in0.0 mm 0.00 in0.0 mm 0.00 in0.0 mm
04:53 AM 35.6°F2.0°C 32.6°F0.3°C 89% Calm Calm 1.3 mph2.1 kmh 30.09 in1019.0 mb 0.00 in0.0 mm 0.00 in0.0 mm 0.00 in0.0 mm
04:48 AM 35.6°F2.0°C 32.6°F0.3°C 89% 0.4 mph SSW0.6 kmh SSW 1.3 mph2.1 kmh 30.09 in1019.0 mb 0.00 in0.0 mm 0.00 in0.0 mm 0.00 in0.0 mm
04:43 AM 35.6°F2.0°C 32.6°F0.3°C 89% 0.3 mph S0.5 kmh S 0.6 mph1.0 kmh 30.09 in1019.0 mb 0.00 in0.0 mm 0.00 in0.0 mm 0.00 in0.0 mm
04:37 AM 35.6°F2.0°C 32.6°F0.3°C 89% Calm Calm 0.6 mph1.0 kmh 30.09 in1019.0 mb 0.00 in0.0 mm 0.00 in0.0 mm 0.00 in0.0 mm
04:32 AM 35.6°F2.0°C 32.6°F0.3°C 89% Calm Calm 1.7 mph2.7 kmh 30.09 in1019.0 mb 0.00 in0.0 mm 0.00 in0.0 mm 0.00 in0.0 mm
04:27 AM 35.6°F2.0°C 32.6°F0.3°C 89% 0.8 mph S1.3 kmh S 1.9 mph3.1 kmh 30.09 in1019.0 mb 0.00 in0.0 mm 0.00 in0.0 mm 0.00 in0.0 mm
04:22 AM 35.6°F2.0°C 32.6°F0.3°C 89% 1.3 mph S2.1 kmh S 1.9 mph3.1 kmh 30.09 in1019.0 mb 0.00 in0.0 mm 0.00 in0.0 mm 0.00 in0.0 mm
04:17 AM 35.6°F2.0°C 32.3°F0.2°C 88% 1.1 mph S1.8 kmh S 1.7 mph2.7 kmh 30.09 in1019.0 mb 0.00 in0.0 mm 0.00 in0.0 mm 0.00 in0.0 mm
04:12 AM 35.6°F2.0°C 32.3°F0.2°C 88% 1.0 mph S1.6 kmh S 1.7 mph2.7 kmh 30.09 in1019.0 mb 0.00 in0.0 mm 0.00 in0.0 mm 0.00 in0.0 mm
04:07 AM 35.8°F2.1°C 32.5°F0.3°C 88% 0.3 mph S0.5 kmh S 1.9 mph3.1 kmh 30.09 in1019.0 mb 0.00 in0.0 mm 0.00 in0.0 mm 0.00 in0.0 mm
04:02 AM 36.0°F2.2°C 32.7°F0.4°C 88% 1.3 mph S2.1 kmh S 1.9 mph3.1 kmh 30.09 in1019.0 mb 0.00 in0.0 mm 0.00 in0.0 mm 0.00 in0.0 mm
03:57 AM 36.0°F2.2°C 32.7°F0.4°C 88% Calm Calm -- 30.09 in1019.0 mb 0.00 in0.0 mm 0.00 in0.0 mm 0.00 in0.0 mm
03:52 AM 36.0°F2.2°C 32.7°F0.4°C 88% Calm Calm -- 30.09 in1019.0 mb 0.00 in0.0 mm 0.00 in0.0 mm 0.00 in0.0 mm
03:47 AM 36.2°F2.3°C 32.9°F0.5°C 88% Calm Calm 1.0 mph1.6 kmh 30.09 in1019.0 mb 0.00 in0.0 mm 0.00 in0.0 mm 0.00 in0.0 mm
03:42 AM 36.2°F2.3°C 32.9°F0.5°C 88% Calm Calm 1.0 mph1.6 kmh 30.10 in1019.3 mb 0.00 in0.0 mm 0.00 in0.0 mm 0.00 in0.0 mm
03:37 AM 36.4°F2.4°C 33.1°F0.6°C 88% Calm Calm 1.0 mph1.6 kmh 30.09 in1019.0 mb 0.00 in0.0 mm 0.00 in0.0 mm 0.00 in0.0 mm
03:32 AM 36.4°F2.4°C 33.1°F0.6°C 88% Calm Calm 1.0 mph1.6 kmh 30.09 in1019.0 mb 0.00 in0.0 mm 0.00 in0.0 mm 0.00 in0.0 mm
03:27 AM 36.4°F2.4°C 33.1°F0.6°C 88% 0.5 mph SSE0.8 kmh SSE 1.7 mph2.7 kmh 30.10 in1019.3 mb 0.00 in0.0 mm 0.00 in0.0 mm 0.00 in0.0 mm
03:22 AM 36.4°F2.4°C 33.1°F0.6°C 88% 0.5 mph SSE0.8 kmh SSE 1.7 mph2.7 kmh 30.10 in1019.3 mb 0.00 in0.0 mm 0.00 in0.0 mm 0.00 in0.0 mm
03:17 AM 36.5°F2.5°C 33.5°F0.8°C 89% 1.2 mph SSE1.9 kmh SSE 1.7 mph2.7 kmh 30.10 in1019.3 mb 0.00 in0.0 mm 0.00 in0.0 mm 0.00 in0.0 mm
03:12 AM 36.4°F2.4°C 33.1°F0.6°C 88% 0.5 mph SSE0.8 kmh SSE 0.6 mph1.0 kmh 30.11 in1019.6 mb 0.00 in0.0 mm 0.00 in0.0 mm 0.00 in0.0 mm
03:06 AM 36.4°F2.4°C 33.1°F0.6°C 88% Calm Calm 1.0 mph1.6 kmh 30.11 in1019.6 mb 0.00 in0.0 mm 0.00 in0.0 mm 0.00 in0.0 mm
03:01 AM 36.4°F2.4°C 33.4°F0.8°C 89% 0.5 mph SSE0.8 kmh SSE 1.3 mph2.1 kmh 30.11 in1019.6 mb 0.00 in0.0 mm 0.00 in0.0 mm 0.00 in0.0 mm
02:56 AM 36.4°F2.4°C 33.1°F0.6°C 88% 1.0 mph SSE1.6 kmh SSE 1.9 mph3.1 kmh 30.11 in1019.6 mb 0.00 in0.0 mm 0.00 in0.0 mm 0.00 in0.0 mm
02:51 AM 36.4°F2.4°C 33.1°F0.6°C 88% 0.6 mph SSE1.0 kmh SSE 1.9 mph3.1 kmh 30.11 in1019.6 mb 0.00 in0.0 mm 0.00 in0.0 mm 0.00 in0.0 mm
02:46 AM 36.4°F2.4°C 33.1°F0.6°C 88% Calm Calm 1.0 mph1.6 kmh 30.11 in1019.6 mb 0.00 in0.0 mm 0.00 in0.0 mm 0.00 in0.0 mm
02:41 AM 36.4°F2.4°C 33.1°F0.6°C 88% Calm Calm 0.3 mph0.5 kmh 30.11 in1019.6 mb 0.00 in0.0 mm 0.00 in0.0 mm 0.00 in0.0 mm
02:36 AM 36.4°F2.4°C 33.1°F0.6°C 88% Calm Calm 0.3 mph0.5 kmh 30.11 in1019.6 mb 0.00 in0.0 mm 0.00 in0.0 mm 0.00 in0.0 mm
02:31 AM 36.5°F2.5°C 33.2°F0.7°C 88% 0.3 mph SSE0.5 kmh SSE 1.0 mph1.6 kmh 30.11 in1019.6 mb 0.00 in0.0 mm 0.00 in0.0 mm 0.00 in0.0 mm
02:25 AM 36.5°F2.5°C 33.2°F0.7°C 88% 0.4 mph SSE0.6 kmh SSE 1.3 mph2.1 kmh 30.12 in1020.0 mb 0.00 in0.0 mm 0.00 in0.0 mm 0.00 in0.0 mm
02:20 AM 36.7°F2.6°C 33.4°F0.8°C 88% 0.7 mph SSE1.1 kmh SSE 2.4 mph3.9 kmh 30.12 in1020.0 mb 0.00 in0.0 mm 0.00 in0.0 mm 0.00 in0.0 mm
02:15 AM 36.9°F2.7°C 33.6°F0.9°C 88% 1.6 mph S2.6 kmh S 2.4 mph3.9 kmh 30.12 in1020.0 mb 0.00 in0.0 mm 0.00 in0.0 mm 0.00 in0.0 mm
02:10 AM 37.1°F2.8°C 33.8°F1.0°C 88% 0.3 mph WSW0.5 kmh WSW 0.6 mph1.0 kmh 30.12 in1020.0 mb 0.00 in0.0 mm 0.00 in0.0 mm 0.00 in0.0 mm
02:05 AM 37.1°F2.8°C 33.8°F1.0°C 88% Calm Calm 1.3 mph2.1 kmh 30.12 in1020.0 mb 0.00 in0.0 mm 0.00 in0.0 mm 0.00 in0.0 mm
02:00 AM 37.1°F2.8°C 33.8°F1.0°C 88% 0.3 mph WSW0.5 kmh WSW 1.3 mph2.1 kmh 30.13 in1020.3 mb 0.00 in0.0 mm 0.00 in0.0 mm 0.00 in0.0 mm
01:55 AM 37.3°F2.9°C 34.0°F1.1°C 88% Calm Calm 0.3 mph0.5 kmh 30.13 in1020.3 mb 0.00 in0.0 mm 0.00 in0.0 mm 0.00 in0.0 mm
01:50 AM 37.3°F2.9°C 34.0°F1.1°C 88% Calm Calm 1.7 mph2.7 kmh 30.13 in1020.3 mb 0.00 in0.0 mm 0.00 in0.0 mm 0.00 in0.0 mm
01:45 AM 37.4°F3.0°C 34.1°F1.2°C 88% 0.6 mph SSW1.0 kmh SSW 1.7 mph2.7 kmh 30.13 in1020.3 mb 0.00 in0.0 mm 0.00 in0.0 mm 0.00 in0.0 mm
01:39 AM 37.4°F3.0°C 34.1°F1.2°C 88% Calm Calm 1.7 mph2.7 kmh 30.13 in1020.3 mb 0.00 in0.0 mm 0.00 in0.0 mm 0.00 in0.0 mm
01:34 AM 37.6°F3.1°C 34.3°F1.3°C 88% 0.8 mph SSW1.3 kmh SSW 1.7 mph2.7 kmh 30.13 in1020.3 mb 0.00 in0.0 mm 0.00 in0.0 mm 0.00 in0.0 mm
01:29 AM 37.6°F3.1°C 34.3°F1.3°C 88% Calm Calm 1.3 mph2.1 kmh 30.14 in1020.7 mb 0.00 in0.0 mm 0.00 in0.0 mm 0.00 in0.0 mm
01:24 AM 37.8°F3.2°C 34.5°F1.4°C 88% 0.4 mph SSW0.6 kmh SSW 1.7 mph2.7 kmh 30.13 in1020.3 mb 0.00 in0.0 mm 0.00 in0.0 mm 0.00 in0.0 mm
01:19 AM 38.0°F3.3°C 34.7°F1.5°C 88% 0.8 mph SSW1.3 kmh SSW 1.7 mph2.7 kmh 30.13 in1020.3 mb 0.00 in0.0 mm 0.00 in0.0 mm 0.00 in0.0 mm
01:14 AM 38.2°F3.4°C 34.9°F1.6°C 88% 0.3 mph SSW0.5 kmh SSW 1.7 mph2.7 kmh 30.14 in1020.7 mb 0.00 in0.0 mm 0.00 in0.0 mm 0.00 in0.0 mm
01:09 AM 38.2°F3.4°C 34.9°F1.6°C 88% 0.7 mph SSW1.1 kmh SSW 1.3 mph2.1 kmh 30.14 in1020.7 mb 0.00 in0.0 mm 0.00 in0.0 mm 0.00 in0.0 mm
01:04 AM 38.3°F3.5°C 35.0°F1.7°C 88% 0.3 mph SSW0.5 kmh SSW 1.0 mph1.6 kmh 30.14 in1020.7 mb 0.00 in0.0 mm 0.00 in0.0 mm 0.00 in0.0 mm
12:59 AM 38.3°F3.5°C 35.0°F1.7°C 88% 0.6 mph SSW1.0 kmh SSW 1.0 mph1.6 kmh 30.14 in1020.7 mb 0.00 in0.0 mm 0.00 in0.0 mm 0.00 in0.0 mm
12:54 AM 38.5°F3.6°C 35.2°F1.8°C 88% 0.3 mph SSW0.5 kmh SSW 2.4 mph3.9 kmh 30.14 in1020.7 mb 0.00 in0.0 mm 0.00 in0.0 mm 0.00 in0.0 mm
12:49 AM 38.5°F3.6°C 35.2°F1.8°C 88% 1.7 mph SSW2.7 kmh SSW 2.4 mph3.9 kmh 30.14 in1020.7 mb 0.00 in0.0 mm 0.00 in0.0 mm 0.00 in0.0 mm
12:44 AM 38.5°F3.6°C 35.2°F1.8°C 88% 0.3 mph SSW0.5 kmh SSW 1.3 mph2.1 kmh 30.14 in1020.7 mb 0.00 in0.0 mm 0.00 in0.0 mm 0.00 in0.0 mm
12:39 AM 38.5°F3.6°C 34.9°F1.6°C 87% 0.5 mph SSW0.8 kmh SSW 1.3 mph2.1 kmh 30.14 in1020.7 mb 0.00 in0.0 mm 0.00 in0.0 mm 0.00 in0.0 mm
12:34 AM 38.5°F3.6°C 34.9°F1.6°C 87% 0.6 mph SSW1.0 kmh SSW 1.7 mph2.7 kmh 30.14 in1020.7 mb 0.00 in0.0 mm 0.00 in0.0 mm 0.00 in0.0 mm
12:29 AM 38.7°F3.7°C 35.1°F1.7°C 87% 1.3 mph SSW2.1 kmh SSW 1.7 mph2.7 kmh 30.14 in1020.7 mb 0.00 in0.0 mm 0.00 in0.0 mm 0.00 in0.0 mm
12:24 AM 38.9°F3.8°C 35.3°F1.8°C 87% 0.4 mph SSW0.6 kmh SSW 1.3 mph2.1 kmh 30.15 in1021.0 mb 0.00 in0.0 mm 0.00 in0.0 mm 0.00 in0.0 mm
12:19 AM 39.1°F3.9°C 35.5°F1.9°C 87% 0.4 mph SSW0.6 kmh SSW 1.7 mph2.7 kmh 30.14 in1020.7 mb 0.00 in0.0 mm 0.00 in0.0 mm 0.00 in0.0 mm
12:13 AM 39.2°F4.0°C 35.3°F1.8°C 86% 0.7 mph SSW1.1 kmh SSW 1.7 mph2.7 kmh 30.15 in1021.0 mb 0.00 in0.0 mm 0.00 in0.0 mm 0.00 in0.0 mm
12:08 AM 39.2°F4.0°C 35.3°F1.8°C 86% Calm Calm 1.0 mph1.6 kmh 30.14 in1020.7 mb 0.00 in0.0 mm 0.00 in0.0 mm 0.00 in0.0 mm
12:03 AM 39.4°F4.1°C 35.5°F1.9°C 86% 0.4 mph SSW0.6 kmh SSW 1.0 mph1.6 kmh 30.14 in1020.7 mb 0.00 in0.0 mm 0.00 in0.0 mm 0.00 in0.0 mm